Terminal Aerodrome Forecast
Issued by NWS Dallas/Fort Worth, TX

Home | Current Version | Previous Version | Text Only | Print | Product List | Glossary On
Versions: 1 2 3 4 5 6 7 8 9 10 11 12 13 14 15 16 17 18 19 20 21 22 23 24 25 26 27 28 29
525
FTUS44 KFWD 280905 AAA
TAFDFW
TAF AMD
KDFW 280905Z 2809/2912 17008KT P6SM OVC007
     FM281100 17008KT 5SM BR OVC006
     FM281600 18007KT 6SM BR BKN010
     FM281700 19011KT P6SM SCT015 SCT040=

USA.gov is the U.S. government's official web portal to all federal, state and local government web resources and services.